Time;durP1;ratioP1;P1;durP2;ratioP2;P2;SDS_P1;SDS_P2;PMS_P1;PMS_P2;Temp;Humidity;BMP_temperature;BMP_pressure;BME280_temperature;BME280_humidity;BME280_pressure;Samples;Min_cycle;Max_cycle;Signal;HPM_P1;HPM_P2
2021/01/24 00:02:00;;;;;;;8.98;5.57;;;5.00;78.20;;;;;;4902047;29;20043;-89
2021/01/24 00:04:26;;;;;;;7.63;6.30;;;4.90;78.10;;;;;;4885878;29;20130;-89
2021/01/24 00:06:51;;;;;;;7.72;5.95;;;4.90;78.10;;;;;;4885450;29;20052;-88
2021/01/24 00:09:17;;;;;;;9.60;7.57;;;4.80;78.00;;;;;;4901194;29;20399;-89
2021/01/24 00:11:43;;;;;;;9.77;7.40;;;4.80;77.90;;;;;;4916713;29;20423;-89
2021/01/24 00:14:09;;;;;;;12.80;9.75;;;4.70;78.00;;;;;;4900453;29;20135;-89
2021/01/24 00:16:34;;;;;;;11.93;9.38;;;4.70;78.00;;;;;;4900825;29;20036;-89
2021/01/24 00:19:00;;;;;;;11.70;8.90;;;4.60;78.00;;;;;;4903143;29;20107;-89
2021/01/24 00:21:25;;;;;;;11.35;8.20;;;4.50;78.10;;;;;;4904184;29;20517;-89
2021/01/24 00:23:51;;;;;;;10.60;8.15;;;4.50;78.20;;;;;;4903702;29;20134;-90
2021/01/24 00:26:17;;;;;;;8.55;7.00;;;4.40;78.30;;;;;;4903743;29;20082;-89
2021/01/24 00:28:42;;;;;;;11.23;8.80;;;4.30;78.40;;;;;;4903749;29;20122;-89
2021/01/24 00:31:08;;;;;;;8.43;6.10;;;4.30;78.70;;;;;;4902698;29;20071;-88
2021/01/24 00:33:34;;;;;;;5.82;4.72;;;4.20;78.90;;;;;;4903381;29;20044;-88
2021/01/24 00:36:00;;;;;;;5.10;3.65;;;4.10;79.10;;;;;;4903191;29;20044;-88
2021/01/24 00:38:25;;;;;;;6.97;5.22;;;4.10;79.10;;;;;;4903504;29;20050;-88
2021/01/24 00:40:51;;;;;;;4.95;3.65;;;4.10;79.20;;;;;;4919210;29;20524;-88
2021/01/24 00:43:16;;;;;;;4.60;3.15;;;4.00;79.20;;;;;;4903471;29;20055;-88
2021/01/24 00:45:42;;;;;;;6.15;4.55;;;4.00;79.20;;;;;;4903271;29;20036;-88
2021/01/24 00:48:08;;;;;;;6.65;5.07;;;4.00;79.20;;;;;;4903083;29;20051;-88
2021/01/24 00:50:34;;;;;;;6.47;5.32;;;3.90;79.20;;;;;;4903759;29;20075;-88
2021/01/24 00:52:59;;;;;;;8.95;5.53;;;3.90;79.30;;;;;;4903086;29;20103;-87
2021/01/24 00:55:25;;;;;;;7.03;5.43;;;3.90;79.40;;;;;;4903209;29;20081;-88
2021/01/24 00:57:51;;;;;;;8.98;6.57;;;3.90;79.40;;;;;;4903103;29;20040;-87
2021/01/24 01:00:17;;;;;;;7.80;5.78;;;3.90;79.40;;;;;;4902769;29;20067;-87
2021/01/24 01:02:43;;;;;;;8.45;6.38;;;3.80;79.50;;;;;;4903173;29;20028;-87
2021/01/24 01:05:09;;;;;;;10.52;7.90;;;3.80;79.60;;;;;;4899167;29;20051;-87
2021/01/24 01:07:35;;;;;;;9.50;7.10;;;3.80;79.90;;;;;;4915775;29;20040;-87
2021/01/24 01:10:00;;;;;;;8.18;5.93;;;3.80;80.00;;;;;;4899656;29;20391;-86
2021/01/24 01:12:26;;;;;;;10.05;7.30;;;3.70;80.00;;;;;;4884112;29;20127;-87
2021/01/24 01:14:52;;;;;;;9.45;6.80;;;3.70;80.10;;;;;;4899864;29;20127;-87
2021/01/24 01:17:18;;;;;;;7.35;5.20;;;3.60;80.40;;;;;;4899406;29;20163;-87
2021/01/24 01:19:43;;;;;;;10.68;8.02;;;3.60;80.50;;;;;;4899854;29;20044;-86
2021/01/24 01:22:09;;;;;;;9.02;6.40;;;3.60;80.80;;;;;;4883982;29;20513;-86
2021/01/24 01:24:35;;;;;;;9.43;5.25;;;3.50;81.00;;;;;;4917908;29;20035;-86
2021/01/24 01:27:01;;;;;;;7.60;5.07;;;3.50;81.10;;;;;;4917989;29;20495;-86
2021/01/24 01:29:26;;;;;;;10.18;6.72;;;3.40;81.80;;;;;;4902555;29;20043;-86
2021/01/24 01:31:52;;;;;;;8.18;5.78;;;3.40;81.50;;;;;;4887047;29;20036;-86
2021/01/24 01:34:18;;;;;;;7.53;5.63;;;3.40;81.70;;;;;;4917917;29;20032;-86
2021/01/24 01:36:43;;;;;;;8.85;5.93;;;3.30;82.00;;;;;;4902549;29;20072;-86
2021/01/24 01:39:09;;;;;;;9.25;6.72;;;3.20;82.10;;;;;;4902070;29;20179;-86
2021/01/24 01:41:35;;;;;;;8.32;5.60;;;3.20;82.30;;;;;;4917999;29;20048;-86
2021/01/24 01:44:02;;;;;;;8.15;4.38;;;3.20;82.50;;;;;;4901866;29;20048;-86
2021/01/24 01:46:29;;;;;;;7.90;5.07;;;3.10;82.60;;;;;;4918091;29;20036;-85
2021/01/24 01:48:55;;;;;;;6.82;3.80;;;3.10;83.50;;;;;;4902345;29;20175;-85
2021/01/24 01:51:21;;;;;;;6.38;4.15;;;3.10;83.00;;;;;;4902117;29;20488;-85
2021/01/24 01:53:47;;;;;;;8.10;5.03;;;3.10;83.00;;;;;;4902212;29;20032;-85
2021/01/24 01:56:14;;;;;;;6.63;4.60;;;3.10;83.20;;;;;;4917415;29;20127;-85
2021/01/24 01:58:40;;;;;;;7.70;4.93;;;3.10;83.20;;;;;;4917923;29;20039;-85
2021/01/24 02:01:15;;;;;;;9.40;5.50;;;3.00;83.30;;;;;;4917796;29;20083;-86
2021/01/24 02:04:10;;;;;;;10.60;6.00;;;3.00;83.30;;;;;;4934700;29;20494;-85
2021/01/24 02:06:47;;;;;;;11.13;6.43;;;3.00;83.60;;;;;;4918003;29;20075;-86
2021/01/24 02:09:26;;;;;;;9.43;6.03;;;3.00;83.50;;;;;;4917676;29;20110;-86
2021/01/24 02:12:19;;;;;;;10.43;6.38;;;3.00;83.60;;;;;;4918026;29;20122;-86
2021/01/24 02:15:07;;;;;;;8.80;5.47;;;3.00;83.80;;;;;;4918141;29;20036;-86
2021/01/24 02:17:37;;;;;;;8.20;5.10;;;3.00;83.80;;;;;;4918394;29;20032;-86
2021/01/24 02:20:11;;;;;;;7.22;4.45;;;3.00;83.70;;;;;;4918061;29;20032;-86
2021/01/24 02:22:40;;;;;;;7.45;4.63;;;3.00;83.70;;;;;;4917957;29;20107;-86
2021/01/24 02:25:18;;;;;;;8.15;5.05;;;3.00;83.60;;;;;;4917818;29;20074;-86
2021/01/24 02:27:58;;;;;;;8.77;5.43;;;3.00;83.50;;;;;;4935064;29;20040;-86
2021/01/24 02:30:33;;;;;;;10.30;5.85;;;3.00;83.30;;;;;;4917676;29;20047;-86
2021/01/24 02:33:09;;;;;;;10.98;6.65;;;3.10;83.30;;;;;;4917759;29;20501;-86
2021/01/24 02:35:57;;;;;;;12.18;7.07;;;3.10;83.40;;;;;;4918015;29;20088;-86
2021/01/24 02:38:24;;;;;;;12.60;8.50;;;3.00;83.40;;;;;;4917086;29;20035;-86
2021/01/24 02:40:50;;;;;;;12.95;7.47;;;3.00;83.60;;;;;;4901999;29;20060;-86
2021/01/24 02:43:17;;;;;;;10.90;7.13;;;3.00;83.50;;;;;;4898553;29;20471;-86
2021/01/24 02:45:45;;;;;;;13.57;8.70;;;3.10;83.50;;;;;;4915745;29;20387;-86
2021/01/24 02:48:12;;;;;;;14.15;8.90;;;3.10;83.40;;;;;;4914200;29;20044;-86
2021/01/24 02:50:40;;;;;;;15.52;9.70;;;3.10;83.40;;;;;;4914526;29;20040;-85
2021/01/24 02:53:06;;;;;;;15.60;8.93;;;3.10;83.40;;;;;;4917084;29;20039;-86
2021/01/24 02:55:32;;;;;;;13.98;9.18;;;3.10;83.90;;;;;;4920537;29;20050;-86
2021/01/24 02:57:58;;;;;;;14.40;8.73;;;3.10;83.20;;;;;;4905143;29;20047;-86
2021/01/24 03:00:24;;;;;;;13.52;8.88;;;3.10;83.10;;;;;;4920648;29;20035;-86
2021/01/24 03:02:50;;;;;;;15.45;9.40;;;3.20;83.00;;;;;;4902050;29;20052;-86
2021/01/24 03:05:16;;;;;;;13.50;8.70;;;3.20;83.00;;;;;;4917163;29;20050;-86
2021/01/24 03:07:43;;;;;;;14.93;8.98;;;3.20;82.70;;;;;;4902229;29;20040;-85
2021/01/24 03:10:10;;;;;;;14.30;9.55;;;3.20;83.20;;;;;;4917238;29;20044;-85
2021/01/24 03:12:40;;;;;;;14.60;9.60;;;3.20;82.60;;;;;;4901748;29;20053;-85
2021/01/24 03:15:07;;;;;;;14.23;8.38;;;3.20;82.60;;;;;;4917976;29;20048;-85
2021/01/24 03:17:38;;;;;;;12.93;8.52;;;3.20;82.50;;;;;;4901577;29;20044;-86
2021/01/24 03:20:06;;;;;;;14.73;10.23;;;3.20;82.40;;;;;;4917326;29;20149;-85
2021/01/24 03:22:34;;;;;;;16.08;10.48;;;3.30;82.50;;;;;;4898729;29;20047;-85
2021/01/24 03:25:02;;;;;;;16.88;10.85;;;3.30;82.50;;;;;;4904724;29;20401;-85
2021/01/24 03:27:28;;;;;;;13.18;9.75;;;3.20;82.50;;;;;;4935630;29;20036;-85
2021/01/24 03:29:54;;;;;;;15.75;10.63;;;3.20;82.50;;;;;;4904597;29;20051;-85
2021/01/24 03:32:21;;;;;;;16.75;9.70;;;3.20;82.60;;;;;;4919742;29;20470;-85
2021/01/24 03:34:46;;;;;;;15.80;11.13;;;3.20;82.60;;;;;;4920172;29;20394;-85
2021/01/24 03:37:12;;;;;;;18.23;12.13;;;3.20;82.60;;;;;;4888519;29;20031;-85
2021/01/24 03:39:37;;;;;;;15.20;10.23;;;3.20;82.70;;;;;;4904217;29;20458;-85
2021/01/24 03:42:03;;;;;;;16.90;11.63;;;3.20;82.70;;;;;;4902658;29;20056;-85
2021/01/24 03:44:29;;;;;;;17.25;11.68;;;3.20;82.60;;;;;;4903847;29;20046;-85
2021/01/24 03:46:55;;;;;;;20.23;13.60;;;3.20;82.50;;;;;;4904256;29;20490;-85
2021/01/24 03:49:21;;;;;;;18.38;11.85;;;3.20;82.50;;;;;;4903863;29;20121;-85
2021/01/24 03:51:47;;;;;;;16.23;11.43;;;3.30;82.50;;;;;;4919660;29;20190;-86
2021/01/24 03:54:12;;;;;;;17.52;11.25;;;3.30;82.30;;;;;;4919940;29;20526;-87
2021/01/24 03:56:38;;;;;;;17.10;12.05;;;3.30;82.20;;;;;;4919968;29;20494;-87
2021/01/24 03:59:04;;;;;;;18.27;12.35;;;3.30;82.10;;;;;;4919970;29;20047;-87
2021/01/24 04:01:32;;;;;;;17.30;11.82;;;3.30;82.10;;;;;;4894204;29;20036;-84
2021/01/24 04:03:58;;;;;;;19.03;12.47;;;3.30;81.90;;;;;;4900711;29;20037;-84
2021/01/24 04:06:24;;;;;;;18.85;12.43;;;3.40;81.90;;;;;;4914979;29;20050;-85
2021/01/24 04:08:50;;;;;;;17.67;12.50;;;3.40;81.90;;;;;;4883746;29;20044;-84
2021/01/24 04:11:17;;;;;;;21.33;14.43;;;3.40;81.90;;;;;;4899943;29;20051;-85
2021/01/24 04:13:43;;;;;;;21.02;14.30;;;3.30;82.00;;;;;;4869263;29;20074;-85
2021/01/24 04:16:10;;;;;;;23.05;14.98;;;3.30;82.10;;;;;;4885068;29;20079;-85
2021/01/24 04:18:37;;;;;;;23.52;15.27;;;3.30;82.10;;;;;;4884594;29;20056;-85
2021/01/24 04:21:04;;;;;;;23.63;16.50;;;3.30;82.20;;;;;;4908517;29;20185;-84
2021/01/24 04:23:29;;;;;;;24.10;16.60;;;3.30;82.30;;;;;;4903104;29;20135;-84
2021/01/24 04:25:56;;;;;;;23.33;15.57;;;3.30;82.30;;;;;;4918453;29;20114;-84
2021/01/24 04:28:21;;;;;;;24.55;16.58;;;3.30;82.40;;;;;;4902947;29;20039;-84
2021/01/24 04:30:47;;;;;;;27.75;17.73;;;3.30;82.40;;;;;;4903166;29;20138;-84
2021/01/24 04:33:13;;;;;;;27.60;17.13;;;3.30;82.50;;;;;;4919093;29;20051;-85
2021/01/24 04:35:38;;;;;;;26.08;16.48;;;3.30;82.50;;;;;;4919251;29;20044;-84
2021/01/24 04:38:04;;;;;;;25.70;16.95;;;3.30;82.60;;;;;;4903031;29;20047;-84
2021/01/24 04:40:29;;;;;;;27.83;16.65;;;3.30;82.60;;;;;;4925592;23;20051;-89
2021/01/24 04:42:56;;;;;;;28.20;17.58;;;3.30;82.60;;;;;;4887947;29;20044;-88
2021/01/24 04:45:22;;;;;;;26.02;15.65;;;3.30;82.80;;;;;;4903137;29;20082;-89
2021/01/24 04:47:48;;;;;;;31.05;17.75;;;3.20;82.80;;;;;;4903601;29;20067;-89
2021/01/24 04:50:16;;;;;;;27.50;16.75;;;3.20;83.00;;;;;;4903078;29;20460;-88
2021/01/24 04:52:42;;;;;;;28.17;16.25;;;3.20;83.80;;;;;;4919407;29;20044;-89
2021/01/24 04:55:08;;;;;;;23.58;13.90;;;3.20;83.30;;;;;;4919140;29;20063;-89
2021/01/24 04:57:35;;;;;;;23.83;13.73;;;3.20;83.20;;;;;;4918704;29;20039;-89
2021/01/24 05:00:01;;;;;;;28.65;16.48;;;3.20;83.10;;;;;;4934305;29;20031;-90
2021/01/24 05:02:28;;;;;;;22.80;14.10;;;3.20;84.00;;;;;;4903108;29;20048;-89
2021/01/24 05:04:54;;;;;;;20.50;12.70;;;3.20;83.40;;;;;;4903350;29;20040;-89
2021/01/24 05:07:19;;;;;;;20.85;12.30;;;3.20;83.30;;;;;;4918884;29;20043;-89
2021/01/24 05:09:48;;;;;;;20.85;12.50;;;3.20;83.30;;;;;;4936099;29;20099;-89
2021/01/24 05:12:15;;;;;;;17.63;11.10;;;3.20;83.30;;;;;;4903054;29;20131;-88
2021/01/24 05:14:41;;;;;;;17.13;10.80;;;3.20;83.30;;;;;;4918253;29;20040;-89
2021/01/24 05:17:07;;;;;;;19.08;12.27;;;3.20;83.30;;;;;;4918478;29;20445;-89
2021/01/24 05:19:34;;;;;;;16.95;10.82;;;3.30;83.30;;;;;;4902582;29;20036;-89
2021/01/24 05:22:03;;;;;;;16.08;10.43;;;3.30;83.10;;;;;;4911653;29;20037;-89
2021/01/24 05:24:30;;;;;;;18.65;11.07;;;3.30;83.10;;;;;;4888081;29;20046;-89
2021/01/24 05:26:56;;;;;;;19.02;11.32;;;3.30;83.20;;;;;;4918346;29;20099;-89
2021/01/24 05:29:23;;;;;;;19.75;12.93;;;3.30;83.40;;;;;;4890995;29;20040;-88
2021/01/24 05:31:51;;;;;;;20.52;12.90;;;3.30;83.40;;;;;;4915450;29;20046;-88
2021/01/24 05:34:17;;;;;;;22.25;14.00;;;3.30;83.70;;;;;;4915171;29;20040;-88
2021/01/24 05:36:46;;;;;;;21.77;13.60;;;3.30;83.90;;;;;;4881693;29;20458;-88
2021/01/24 05:39:15;;;;;;;17.38;11.38;;;3.20;84.50;;;;;;4915219;29;20394;-88
2021/01/24 05:41:46;;;;;;;15.63;10.77;;;3.20;83.80;;;;;;4917816;29;20402;-87
2021/01/24 05:44:16;;;;;;;18.60;12.07;;;3.20;83.60;;;;;;4919032;29;20032;-88
2021/01/24 05:46:42;;;;;;;17.75;12.50;;;3.30;83.70;;;;;;4918129;29;20401;-88
2021/01/24 05:49:09;;;;;;;19.98;12.18;;;3.30;83.90;;;;;;4918314;29;20122;-88
2021/01/24 05:51:35;;;;;;;16.50;11.52;;;3.30;83.90;;;;;;4917866;29;20048;-87
2021/01/24 05:54:01;;;;;;;16.95;10.77;;;3.20;83.90;;;;;;4918280;29;20103;-87
2021/01/24 05:56:28;;;;;;;17.83;11.18;;;3.20;83.80;;;;;;4917478;29;20383;-88
2021/01/24 05:58:57;;;;;;;15.13;10.07;;;3.20;83.90;;;;;;4918080;29;20142;-88
2021/01/24 06:01:27;;;;;;;19.95;11.18;;;3.20;83.80;;;;;;4917923;29;20139;-87
2021/01/24 06:03:54;;;;;;;14.52;10.90;;;3.20;83.80;;;;;;4935088;29;20031;-90
2021/01/24 06:06:20;;;;;;;17.05;11.65;;;3.20;84.50;;;;;;4918175;29;20092;-89
2021/01/24 06:08:46;;;;;;;14.40;10.00;;;3.20;84.00;;;;;;4916826;29;20421;-91
2021/01/24 06:11:17;;;;;;;16.75;10.07;;;3.20;84.00;;;;;;4898996;29;20055;-89
2021/01/24 06:13:47;;;;;;;13.48;9.55;;;3.20;84.00;;;;;;4912725;29;20040;-89
2021/01/24 06:16:20;;;;;;;16.45;9.70;;;3.20;83.90;;;;;;4878829;29;20044;-89
2021/01/24 06:19:03;;;;;;;15.32;10.40;;;3.20;83.80;;;;;;4914446;29;20039;-89
2021/01/24 06:21:52;;;;;;;14.68;10.02;;;3.30;84.00;;;;;;4914617;29;20123;-89
2021/01/24 06:24:27;;;;;;;12.82;9.18;;;3.20;84.10;;;;;;4914847;29;20032;-89
2021/01/24 06:26:59;;;;;;;12.68;8.82;;;3.20;84.20;;;;;;4917583;29;20062;-89
2021/01/24 06:29:30;;;;;;;11.23;8.18;;;3.20;84.10;;;;;;4918946;29;20043;-90
2021/01/24 06:31:57;;;;;;;11.95;9.13;;;3.20;84.10;;;;;;4921563;29;20396;-90
2021/01/24 06:34:38;;;;;;;15.50;9.82;;;3.20;84.20;;;;;;4905302;29;20191;-90
2021/01/24 06:37:20;;;;;;;10.18;8.02;;;3.30;84.20;;;;;;4921582;29;20090;-90
2021/01/24 06:39:49;;;;;;;10.30;8.10;;;3.30;84.60;;;;;;4920965;29;20056;-91
2021/01/24 06:42:48;;;;;;;12.82;8.52;;;3.30;83.90;;;;;;4929689;29;20118;-90
2021/01/24 06:45:32;;;;;;;8.98;6.78;;;3.30;83.80;;;;;;4908461;29;20039;-91
2021/01/24 06:48:00;;;;;;;11.32;8.70;;;3.30;83.80;;;;;;4922539;29;20477;-93
2021/01/24 06:50:43;;;;;;;10.98;8.50;;;3.30;83.60;;;;;;4916037;29;20040;-93
2021/01/24 06:53:18;;;;;;;10.85;8.30;;;3.30;83.50;;;;;;4927437;29;20043;-89
2021/01/24 06:55:55;;;;;;;10.35;8.57;;;3.30;83.50;;;;;;4918033;29;20072;-89
2021/01/24 06:58:28;;;;;;;10.48;7.90;;;3.40;83.50;;;;;;4888718;29;20088;-89
2021/01/24 07:01:26;;;;;;;13.52;9.98;;;3.40;83.40;;;;;;4911121;29;20039;-88
2021/01/24 07:04:25;;;;;;;10.82;8.55;;;3.40;83.50;;;;;;4921664;29;20386;-89
2021/01/24 07:06:55;;;;;;;11.73;10.07;;;3.40;83.60;;;;;;4921981;29;20071;-88
2021/01/24 07:09:24;;;;;;;14.57;10.32;;;3.30;83.50;;;;;;4921793;29;20066;-89
2021/01/24 07:11:51;;;;;;;12.75;9.98;;;3.40;83.60;;;;;;4920000;29;20130;-91
2021/01/24 07:14:35;;;;;;;12.77;9.65;;;3.40;83.60;;;;;;4922740;29;20130;-91
2021/01/24 07:17:09;;;;;;;15.68;11.73;;;3.40;83.60;;;;;;4920517;29;20100;-91
2021/01/24 07:19:41;;;;;;;13.77;10.40;;;3.40;83.80;;;;;;4936427;29;20047;-92
2021/01/24 07:22:07;;;;;;;13.48;10.27;;;3.30;83.80;;;;;;4922160;29;20031;-94
2021/01/24 07:24:33;;;;;;;12.55;10.20;;;3.30;83.80;;;;;;4892661;29;20036;-92
2021/01/24 07:26:59;;;;;;;12.48;9.23;;;3.30;83.80;;;;;;4892116;29;20179;-92
2021/01/24 07:29:27;;;;;;;10.93;9.20;;;3.30;83.80;;;;;;4922489;29;20050;-93
2021/01/24 07:31:52;;;;;;;10.43;7.93;;;3.30;83.80;;;;;;4922315;29;20175;-92
2021/01/24 07:34:22;;;;;;;12.38;9.45;;;3.30;83.70;;;;;;4906770;29;20071;-91
2021/01/24 07:36:48;;;;;;;10.50;8.40;;;3.30;83.80;;;;;;4908088;29;20043;-93
2021/01/24 07:39:14;;;;;;;11.02;8.32;;;3.30;83.80;;;;;;4923791;29;20059;-93
2021/01/24 07:41:41;;;;;;;10.50;8.38;;;3.30;84.00;;;;;;4907986;29;20044;-92
2021/01/24 07:44:07;;;;;;;9.45;7.50;;;3.30;84.10;;;;;;4925980;29;20035;-93
2021/01/24 07:46:33;;;;;;;8.18;6.97;;;3.30;84.10;;;;;;4909930;29;20127;-93
2021/01/24 07:48:58;;;;;;;8.63;6.68;;;3.30;84.10;;;;;;4908424;29;20044;-92
2021/01/24 07:51:24;;;;;;;9.15;6.07;;;3.30;84.00;;;;;;4909961;29;20463;-93
2021/01/24 07:53:50;;;;;;;8.82;6.30;;;3.30;84.10;;;;;;4893648;29;20070;-92
2021/01/24 07:56:15;;;;;;;7.35;5.32;;;3.30;84.30;;;;;;4893840;29;20039;-93
2021/01/24 07:58:41;;;;;;;6.30;4.90;;;3.30;84.30;;;;;;4909351;29;20050;-93
2021/01/24 08:01:08;;;;;;;6.93;5.05;;;3.30;84.30;;;;;;4911908;29;20042;-92
2021/01/24 08:03:34;;;;;;;7.25;5.68;;;3.30;84.20;;;;;;4925737;29;20031;-92
2021/01/24 08:06:13;;;;;;;8.88;5.90;;;3.30;84.20;;;;;;4922834;29;20047;-93
2021/01/24 08:08:39;;;;;;;;;;;3.30;84.20;;;;;;4906571;29;20157;-92
2021/01/24 08:11:05;;;;;;;11.00;7.25;;;3.30;84.20;;;;;;4920256;29;20404;-92
2021/01/24 08:13:32;;;;;;;9.60;7.05;;;3.30;84.30;;;;;;4921529;29;20044;-92
2021/01/24 08:16:00;;;;;;;10.20;7.68;;;3.20;84.30;;;;;;4921069;29;20039;-92
2021/01/24 08:18:27;;;;;;;12.25;8.55;;;3.30;84.30;;;;;;4920761;29;20103;-91
2021/01/24 08:20:54;;;;;;;15.45;10.32;;;3.30;84.30;;;;;;4920064;29;20035;-92
2021/01/24 08:23:19;;;;;;;12.88;8.90;;;3.30;84.50;;;;;;4904234;29;20397;-91
2021/01/24 08:25:45;;;;;;;13.88;9.50;;;3.30;84.40;;;;;;4919418;29;20036;-92
2021/01/24 08:28:11;;;;;;;12.77;9.45;;;3.30;84.30;;;;;;4904528;29;20054;-92
2021/01/24 08:30:43;;;;;;;14.38;10.80;;;3.30;84.20;;;;;;4919655;29;20067;-92
2021/01/24 08:33:20;;;;;;;16.90;11.30;;;3.30;84.20;;;;;;4920798;29;20051;-92
2021/01/24 08:35:49;;;;;;;14.85;9.68;;;3.30;84.20;;;;;;4915552;29;20036;-91
2021/01/24 08:38:17;;;;;;;15.48;11.40;;;3.30;84.20;;;;;;4919672;29;20046;-90
2021/01/24 08:40:42;;;;;;;16.95;10.95;;;3.30;84.40;;;;;;4918512;29;20039;-91
2021/01/24 08:43:09;;;;;;;15.57;9.95;;;3.30;84.30;;;;;;4903359;29;20051;-91
2021/01/24 08:45:35;;;;;;;14.05;9.63;;;3.30;84.30;;;;;;4918714;29;20043;-90
2021/01/24 08:48:05;;;;;;;14.65;10.00;;;3.30;84.40;;;;;;4918364;29;20043;-91
2021/01/24 08:50:36;;;;;;;13.88;10.15;;;3.30;84.30;;;;;;4936143;29;20071;-90
2021/01/24 08:53:06;;;;;;;14.75;9.13;;;3.30;84.40;;;;;;4918936;29;20087;-90
2021/01/24 08:55:49;;;;;;;12.75;9.05;;;3.30;84.30;;;;;;4903774;29;20047;-91
2021/01/24 08:58:25;;;;;;;10.88;8.25;;;3.30;84.60;;;;;;4903600;29;20039;-91
2021/01/24 09:01:06;;;;;;;13.85;8.63;;;3.30;84.80;;;;;;4935677;29;20050;-90
2021/01/24 09:03:31;;;;;;;10.75;7.53;;;3.30;85.00;;;;;;4918857;29;20091;-90
2021/01/24 09:06:17;;;;;;;9.65;7.30;;;3.30;84.90;;;;;;4902906;29;20036;-86
2021/01/24 09:08:53;;;;;;;13.07;7.78;;;3.30;84.90;;;;;;4915706;29;20048;-88
2021/01/24 09:11:19;;;;;;;9.55;6.50;;;3.30;84.90;;;;;;4869783;29;20048;-87
2021/01/24 09:13:45;;;;;;;12.35;7.18;;;3.30;84.80;;;;;;4899634;29;20040;-87
2021/01/24 09:16:11;;;;;;;10.05;6.95;;;3.30;84.70;;;;;;4884156;29;20395;-88
2021/01/24 09:18:36;;;;;;;15.75;8.35;;;3.30;84.80;;;;;;4899814;29;20040;-87
2021/01/24 09:21:04;;;;;;;12.48;7.10;;;3.40;84.80;;;;;;4916162;29;20097;-88
2021/01/24 09:23:30;;;;;;;14.57;7.97;;;3.40;84.80;;;;;;4899885;29;20091;-88
2021/01/24 09:25:56;;;;;;;13.10;8.63;;;3.30;84.70;;;;;;4907698;29;20047;-88
2021/01/24 09:28:22;;;;;;;15.48;9.40;;;3.40;84.70;;;;;;4918698;29;20043;-88
2021/01/24 09:30:48;;;;;;;17.60;10.52;;;3.40;84.80;;;;;;4902822;29;20416;-88
2021/01/24 09:33:13;;;;;;;16.30;10.35;;;3.40;84.80;;;;;;4934243;29;20096;-88
2021/01/24 09:35:39;;;;;;;17.58;11.05;;;3.40;85.00;;;;;;4902963;29;20040;-88
2021/01/24 09:38:05;;;;;;;17.38;10.45;;;3.30;85.00;;;;;;4902393;29;20054;-88
2021/01/24 09:40:30;;;;;;;15.65;10.27;;;3.40;85.10;;;;;;4902697;29;20056;-87
2021/01/24 09:42:56;;;;;;;17.95;12.00;;;3.40;85.10;;;;;;4918458;29;20036;-87
2021/01/24 09:45:23;;;;;;;23.20;14.25;;;3.40;85.00;;;;;;4917839;29;20044;-87
2021/01/24 09:47:50;;;;;;;21.77;14.02;;;3.40;84.90;;;;;;4898105;29;20438;-87
2021/01/24 09:50:19;;;;;;;24.30;15.10;;;3.40;84.80;;;;;;4899171;29;20044;-87
2021/01/24 09:52:44;;;;;;;27.20;17.10;;;3.40;84.70;;;;;;4909507;29;20825;-87
2021/01/24 09:55:11;;;;;;;21.50;14.95;;;3.50;84.90;;;;;;4883375;29;20048;-86
2021/01/24 09:57:37;;;;;;;18.60;12.75;;;3.40;84.90;;;;;;4895701;29;20037;-86
2021/01/24 10:00:05;;;;;;;17.95;12.60;;;3.50;84.80;;;;;;4884722;29;20040;-86
2021/01/24 10:02:30;;;;;;;18.48;12.30;;;3.50;84.70;;;;;;4898381;29;20039;-86
2021/01/24 10:04:56;;;;;;;19.98;12.85;;;3.50;84.60;;;;;;4884842;29;20044;-86
2021/01/24 10:07:22;;;;;;;19.13;13.43;;;3.50;84.70;;;;;;4870655;29;20403;-85
2021/01/24 10:09:47;;;;;;;18.25;11.82;;;3.50;84.70;;;;;;4887574;29;20095;-84
2021/01/24 10:12:13;;;;;;;18.05;12.63;;;3.50;84.70;;;;;;4892353;29;20042;-84
2021/01/24 10:14:38;;;;;;;15.30;10.93;;;3.50;84.70;;;;;;4906506;29;20047;-85
2021/01/24 10:17:04;;;;;;;15.07;10.82;;;3.60;84.70;;;;;;4905727;29;20043;-84
2021/01/24 10:19:30;;;;;;;17.88;11.35;;;3.60;85.30;;;;;;4921217;29;20486;-84
2021/01/24 10:21:55;;;;;;;21.48;13.07;;;3.60;84.70;;;;;;4889937;29;20047;-83
2021/01/24 10:24:21;;;;;;;16.20;10.57;;;3.70;84.70;;;;;;4921122;29;20035;-84
2021/01/24 10:26:46;;;;;;;18.45;10.73;;;3.70;84.60;;;;;;4905853;29;20035;-84
2021/01/24 10:29:12;;;;;;;17.23;10.52;;;3.80;84.60;;;;;;4905571;29;20501;-87
2021/01/24 10:31:38;;;;;;;16.60;11.00;;;3.80;84.60;;;;;;4905748;29;20051;-88
2021/01/24 10:34:03;;;;;;;16.48;10.40;;;3.90;84.50;;;;;;4921540;29;20039;-88
2021/01/24 10:36:29;;;;;;;19.15;11.55;;;4.00;84.40;;;;;;4890375;29;20039;-88
2021/01/24 10:41:22;;;;;;;14.65;9.27;;;4.10;84.10;;;;;;4917635;29;20076;-85
2021/01/24 10:43:48;;;;;;;21.75;12.93;;;4.20;83.80;;;;;;4887171;29;20101;-85
2021/01/24 10:46:14;;;;;;;15.20;11.45;;;4.20;83.80;;;;;;4901733;29;20064;-85
2021/01/24 10:48:40;;;;;;;15.98;10.43;;;4.30;84.10;;;;;;4886802;29;20044;-85
2021/01/24 10:51:08;;;;;;;18.92;11.82;;;4.30;83.90;;;;;;4895655;29;20401;-87
2021/01/24 10:53:34;;;;;;;15.20;10.15;;;4.40;84.00;;;;;;4895360;29;20506;-84
2021/01/24 10:56:00;;;;;;;21.80;12.13;;;4.50;83.90;;;;;;4869500;29;20061;-84
2021/01/24 10:58:26;;;;;;;18.60;11.27;;;4.50;83.90;;;;;;4876033;29;20051;-85
2021/01/24 11:00:53;;;;;;;15.07;9.60;;;4.60;83.70;;;;;;4866255;29;20036;-85
2021/01/24 11:03:19;;;;;;;18.38;11.13;;;4.60;83.40;;;;;;4882993;29;20040;-85
2021/01/24 11:05:45;;;;;;;20.17;11.35;;;4.70;83.30;;;;;;4907326;29;20486;-85
2021/01/24 11:08:10;;;;;;;16.95;10.13;;;4.80;83.30;;;;;;4877190;29;20131;-84
2021/01/24 11:10:36;;;;;;;15.95;10.00;;;4.90;83.20;;;;;;4875879;29;20124;-85
2021/01/24 11:13:02;;;;;;;15.65;9.63;;;4.90;83.00;;;;;;4885853;29;20581;-85
2021/01/24 11:15:27;;;;;;;16.10;8.93;;;5.00;82.80;;;;;;4892003;29;20054;-85
2021/01/24 11:17:54;;;;;;;12.10;9.13;;;5.10;82.70;;;;;;4901348;29;20040;-84
2021/01/24 11:20:20;;;;;;;15.88;9.20;;;5.20;82.70;;;;;;4885943;29;20036;-85
2021/01/24 11:22:45;;;;;;;18.00;9.45;;;5.20;82.50;;;;;;4879434;29;20048;-85
2021/01/24 11:25:11;;;;;;;14.50;9.32;;;5.30;82.30;;;;;;4867350;29;20079;-84
2021/01/24 11:27:37;;;;;;;14.85;8.27;;;5.40;82.30;;;;;;4867388;29;20144;-85
2021/01/24 11:30:09;;;;;;;13.05;8.20;;;5.40;82.10;;;;;;4882361;29;20053;-85
2021/01/24 11:32:35;;;;;;;11.05;7.40;;;5.50;81.90;;;;;;4889393;29;20092;-85
2021/01/24 11:35:02;;;;;;;13.13;7.60;;;5.60;81.80;;;;;;4918090;29;20039;-85
2021/01/24 11:37:28;;;;;;;11.20;6.75;;;5.70;81.60;;;;;;4901182;29;20039;-85
2021/01/24 11:39:54;;;;;;;11.32;7.65;;;5.80;81.40;;;;;;4869905;29;20056;-85
2021/01/24 11:42:19;;;;;;;12.43;7.28;;;5.80;81.20;;;;;;4869782;29;20046;-85
2021/01/24 11:44:45;;;;;;;10.82;6.70;;;5.90;81.10;;;;;;4897681;29;20398;-85
2021/01/24 11:47:11;;;;;;;11.65;6.95;;;6.00;81.00;;;;;;4896576;29;20035;-85
2021/01/24 11:49:36;;;;;;;12.43;7.30;;;6.10;80.90;;;;;;4901073;29;20036;-85
2021/01/24 11:52:02;;;;;;;11.38;6.35;;;6.10;80.60;;;;;;4869636;29;20059;-85
2021/01/24 11:54:28;;;;;;;11.38;7.05;;;6.20;80.50;;;;;;4885658;29;20514;-85
2021/01/24 11:56:53;;;;;;;11.57;7.10;;;6.30;80.40;;;;;;4884196;29;20624;-85
2021/01/24 11:59:19;;;;;;;10.27;6.38;;;6.30;80.20;;;;;;4899073;29;20040;-85
2021/01/24 12:01:45;;;;;;;9.05;6.05;;;6.40;80.20;;;;;;4897321;29;20051;-85
2021/01/24 12:04:10;;;;;;;9.25;5.90;;;6.40;79.90;;;;;;4878824;29;20047;-85
2021/01/24 12:06:36;;;;;;;13.05;7.28;;;6.50;79.90;;;;;;4866680;29;20048;-84
2021/01/24 12:09:02;;;;;;;10.10;6.18;;;6.50;79.40;;;;;;4873484;29;20048;-85
2021/01/24 12:11:28;;;;;;;9.35;5.70;;;6.50;79.40;;;;;;4892587;29;20044;-86
2021/01/24 12:13:53;;;;;;;8.95;5.82;;;6.60;79.40;;;;;;4883873;29;20036;-85
2021/01/24 12:16:21;;;;;;;10.68;6.22;;;6.60;80.00;;;;;;4866732;29;20505;-85
2021/01/24 12:18:47;;;;;;;12.30;7.67;;;6.70;79.20;;;;;;4885322;29;20049;-86
2021/01/24 12:21:13;;;;;;;11.85;7.03;;;6.70;79.10;;;;;;4884396;29;20040;-87
2021/01/24 12:23:39;;;;;;;10.13;6.70;;;6.70;78.90;;;;;;4873806;29;20040;-86
2021/01/24 12:26:04;;;;;;;8.98;5.45;;;6.70;79.40;;;;;;4890038;29;20123;-86
2021/01/24 12:28:30;;;;;;;11.63;6.63;;;6.70;78.60;;;;;;4891050;29;20064;-86
2021/01/24 12:30:56;;;;;;;13.23;6.45;;;6.70;78.60;;;;;;4882308;29;20048;-87
2021/01/24 12:33:22;;;;;;;8.60;5.90;;;6.70;78.20;;;;;;4900356;29;20111;-86
2021/01/24 12:35:47;;;;;;;12.68;6.50;;;6.70;78.20;;;;;;4898577;29;20040;-86
2021/01/24 12:38:13;;;;;;;10.65;5.75;;;6.70;77.80;;;;;;4883872;29;20490;-86
2021/01/24 12:40:39;;;;;;;13.82;7.68;;;6.80;77.90;;;;;;4900140;29;20410;-86
2021/01/24 12:43:05;;;;;;;14.40;7.18;;;6.70;77.50;;;;;;4917228;29;20504;-87
2021/01/24 12:45:30;;;;;;;12.00;6.30;;;6.70;77.10;;;;;;4869043;29;20091;-86
2021/01/24 12:47:56;;;;;;;9.70;5.90;;;6.70;76.80;;;;;;4885021;29;20071;-86
2021/01/24 12:50:22;;;;;;;10.50;5.65;;;6.70;77.60;;;;;;4899871;29;20486;-86
2021/01/24 12:52:48;;;;;;;9.80;5.28;;;6.70;77.20;;;;;;4900238;29;20043;-86